createdAt,value
2018-12-10T00:00:09.224Z,5.30
2018-12-10T00:02:37.602Z,5.20
2018-12-10T00:05:06.366Z,5.20
2018-12-10T00:07:34.663Z,5.20
2018-12-10T00:10:09.694Z,5.10
2018-12-10T00:12:38.581Z,5.10
2018-12-10T00:15:07.631Z,5.00
2018-12-10T00:17:35.841Z,5.20
2018-12-10T00:20:04.747Z,5.20
2018-12-10T00:22:33.018Z,5.20
2018-12-10T00:25:01.290Z,5.30
2018-12-10T00:27:29.565Z,5.40
2018-12-10T00:29:57.868Z,5.50
2018-12-10T00:32:26.189Z,5.40
2018-12-10T00:34:54.453Z,5.40
2018-12-10T00:37:22.681Z,5.50
2018-12-10T00:39:51.022Z,5.50
2018-12-10T00:42:19.372Z,5.60
2018-12-10T00:44:47.626Z,5.60
2018-12-10T00:47:16.126Z,5.60
2018-12-10T00:49:45.286Z,5.50
2018-12-10T00:52:13.497Z,5.50
2018-12-10T00:54:41.777Z,5.50
2018-12-10T00:57:10.117Z,5.50
2018-12-10T00:59:38.788Z,5.40
2018-12-10T01:02:07.152Z,5.40
2018-12-10T01:04:35.387Z,5.40
2018-12-10T01:07:03.629Z,5.30
2018-12-10T01:09:32.279Z,5.30
2018-12-10T01:12:01.106Z,5.30
2018-12-10T01:14:29.434Z,5.20
2018-12-10T01:16:57.702Z,5.10
2018-12-10T01:19:26.093Z,5.10
2018-12-10T01:21:54.344Z,5.10
2018-12-10T01:24:22.631Z,5.20
2018-12-10T01:26:50.928Z,5.20
2018-12-10T01:29:19.200Z,5.10
2018-12-10T01:31:47.580Z,5.10
2018-12-10T01:34:16.492Z,5.30
2018-12-10T01:36:44.790Z,5.20
2018-12-10T01:39:13.760Z,5.20
2018-12-10T01:41:43.326Z,5.20
2018-12-10T01:44:12.215Z,5.10
2018-12-10T01:46:40.651Z,5.20
2018-12-10T01:49:08.975Z,5.20
2018-12-10T01:51:37.877Z,5.40
2018-12-10T01:54:06.214Z,5.40
2018-12-10T01:56:35.092Z,5.30
2018-12-10T01:59:03.434Z,5.40
2018-12-10T02:01:31.734Z,5.30
2018-12-10T02:04:01.219Z,5.30
2018-12-10T02:06:29.572Z,5.30
2018-12-10T02:08:59.159Z,5.30
2018-12-10T02:11:28.424Z,5.40
2018-12-10T02:13:57.308Z,5.30
2018-12-10T02:16:26.430Z,5.30
2018-12-10T02:18:54.862Z,5.30
2018-12-10T02:21:23.894Z,5.30
2018-12-10T02:23:52.218Z,5.10
2018-12-10T02:26:20.529Z,5.10
2018-12-10T02:28:54.150Z,5.10
2018-12-10T02:31:22.396Z,5.10
2018-12-10T02:33:50.746Z,5.10
2018-12-10T02:36:19.085Z,5.20
2018-12-10T02:38:47.405Z,5.10
2018-12-10T02:41:15.767Z,5.00
2018-12-10T02:43:44.025Z,4.80
2018-12-10T02:46:12.277Z,4.70
2018-12-10T02:48:40.687Z,4.80
2018-12-10T02:51:10.262Z,4.70
2018-12-10T02:53:39.563Z,4.60
2018-12-10T02:56:07.972Z,4.70
2018-12-10T02:58:36.644Z,4.70
2018-12-10T03:01:05.020Z,4.70
2018-12-10T03:03:33.282Z,4.70
2018-12-10T03:06:01.662Z,4.70
2018-12-10T03:08:30.071Z,4.70
2018-12-10T03:10:58.349Z,4.70
2018-12-10T03:13:26.717Z,4.70
2018-12-10T03:15:54.988Z,4.70
2018-12-10T03:18:23.396Z,4.60
2018-12-10T03:20:52.971Z,4.40
2018-12-10T03:23:21.629Z,4.30
2018-12-10T03:25:50.048Z,4.20
2018-12-10T03:28:19.182Z,4.00
2018-12-10T03:30:47.478Z,3.80
2018-12-10T03:33:15.854Z,3.70
2018-12-10T03:35:44.438Z,3.70
2018-12-10T03:38:12.745Z,3.50
2018-12-10T03:40:41.020Z,3.50
2018-12-10T03:43:09.347Z,3.40
2018-12-10T03:45:37.703Z,3.50
2018-12-10T03:48:06.019Z,3.40
2018-12-10T03:50:34.824Z,3.40
2018-12-10T03:53:03.226Z,3.20
2018-12-10T03:55:32.025Z,3.10
2018-12-10T03:58:00.417Z,3.10
2018-12-10T04:00:28.770Z,3.20
2018-12-10T04:02:57.015Z,3.10
2018-12-10T04:05:25.313Z,3.00
2018-12-10T04:07:53.598Z,2.90
2018-12-10T04:10:21.973Z,3.00
2018-12-10T04:12:50.252Z,3.10
2018-12-10T04:15:18.727Z,3.20
2018-12-10T04:17:47.792Z,3.30
2018-12-10T04:20:16.963Z,3.20
2018-12-10T04:22:45.854Z,3.20
2018-12-10T04:25:20.742Z,3.10
2018-12-10T04:27:49.047Z,3.00
2018-12-10T04:30:17.352Z,3.00
2018-12-10T04:32:45.650Z,2.90
2018-12-10T04:35:14.602Z,3.00
2018-12-10T04:37:43.277Z,3.10
2018-12-10T04:40:12.481Z,3.10
2018-12-10T04:42:40.773Z,3.10
2018-12-10T04:45:09.187Z,3.10
2018-12-10T04:47:37.439Z,3.00
2018-12-10T04:50:06.693Z,3.00
2018-12-10T04:52:35.029Z,3.00
2018-12-10T04:55:03.447Z,3.10
2018-12-10T04:57:31.728Z,3.10
2018-12-10T04:59:59.986Z,3.00
2018-12-10T05:02:28.374Z,3.00
2018-12-10T05:04:57.033Z,2.90
2018-12-10T05:07:25.308Z,2.90
2018-12-10T05:09:53.597Z,3.00
2018-12-10T05:12:21.868Z,3.10
2018-12-10T05:14:50.137Z,3.00
2018-12-10T05:17:18.672Z,3.00
2018-12-10T05:19:47.006Z,3.00
2018-12-10T05:22:15.308Z,3.00
2018-12-10T05:24:44.136Z,3.10
2018-12-10T05:27:12.556Z,3.20
2018-12-10T05:29:41.589Z,3.20
2018-12-10T05:32:09.957Z,3.20
2018-12-10T05:34:38.377Z,3.30
2018-12-10T05:37:06.727Z,3.20
2018-12-10T05:39:38.539Z,3.20
2018-12-10T05:42:06.996Z,3.40
2018-12-10T05:44:35.300Z,3.50
2018-12-10T05:47:04.211Z,3.60
2018-12-10T05:49:33.006Z,3.70
2018-12-10T05:52:01.629Z,3.70
2018-12-10T05:54:31.057Z,3.70
2018-12-10T05:57:00.468Z,3.70
2018-12-10T05:59:28.895Z,3.80
2018-12-10T06:01:57.283Z,3.80
2018-12-10T06:04:25.748Z,3.90
2018-12-10T06:06:54.249Z,3.90
2018-12-10T06:09:22.604Z,4.00
2018-12-10T06:11:51.280Z,4.00
2018-12-10T06:14:20.306Z,4.00
2018-12-10T06:16:49.433Z,3.90
2018-12-10T06:19:17.713Z,3.90
2018-12-10T06:21:46.074Z,4.00
2018-12-10T06:24:14.662Z,4.00
2018-12-10T06:26:43.340Z,4.00
2018-12-10T06:29:11.908Z,4.00
2018-12-10T06:31:41.750Z,4.20
2018-12-10T06:34:10.274Z,4.20
2018-12-10T06:36:38.999Z,4.10
2018-12-10T06:39:08.411Z,4.10
2018-12-10T06:41:38.829Z,4.10
2018-12-10T06:44:07.580Z,4.20
2018-12-10T06:46:36.582Z,4.20
2018-12-10T06:49:05.019Z,4.30
2018-12-10T06:51:33.826Z,4.30
2018-12-10T06:54:02.148Z,4.20
2018-12-10T06:56:30.974Z,4.20
2018-12-10T06:58:59.588Z,4.10
2018-12-10T07:01:27.984Z,4.30
2018-12-10T07:03:56.341Z,4.20
2018-12-10T07:06:24.782Z,4.30
2018-12-10T07:08:53.065Z,4.10
2018-12-10T07:11:21.342Z,4.20
2018-12-10T07:13:49.777Z,4.10
2018-12-10T07:16:19.267Z,4.00
2018-12-10T07:18:48.884Z,4.00
2018-12-10T07:21:17.172Z,4.10
2018-12-10T07:23:45.539Z,4.00
2018-12-10T07:26:20.657Z,4.10
2018-12-10T07:28:49.322Z,4.00
2018-12-10T07:31:17.746Z,3.90
2018-12-10T07:33:46.255Z,3.90
2018-12-10T07:36:14.967Z,4.00
2018-12-10T07:38:43.248Z,4.00
2018-12-10T07:41:11.922Z,4.00
2018-12-10T07:43:41.053Z,4.00
2018-12-10T07:46:09.548Z,4.00
2018-12-10T07:48:38.610Z,4.20
2018-12-10T07:51:08.389Z,4.10
2018-12-10T07:53:37.230Z,4.10
2018-12-10T07:56:05.776Z,4.10
2018-12-10T07:58:34.701Z,4.20
2018-12-10T08:01:04.427Z,4.30
2018-12-10T08:03:33.032Z,4.50
2018-12-10T08:06:01.510Z,4.60
2018-12-10T08:08:29.865Z,4.60
2018-12-10T08:10:58.224Z,4.70
2018-12-10T08:13:26.931Z,4.50
2018-12-10T08:15:55.279Z,4.50
2018-12-10T08:18:23.599Z,4.60
2018-12-10T08:20:51.992Z,4.40
2018-12-10T08:23:20.771Z,4.30
2018-12-10T08:25:49.298Z,4.40
2018-12-10T08:28:17.550Z,4.40
2018-12-10T08:30:46.629Z,4.30
2018-12-10T08:33:14.901Z,4.30
2018-12-10T08:35:43.383Z,4.30
2018-12-10T08:38:12.154Z,4.50
2018-12-10T08:40:40.925Z,4.50
2018-12-10T08:43:09.194Z,4.50
2018-12-10T08:45:37.571Z,4.50
2018-12-10T08:48:06.811Z,4.60
2018-12-10T08:50:35.210Z,4.60
2018-12-10T08:53:03.630Z,4.80
2018-12-10T08:55:31.946Z,4.60
2018-12-10T08:58:00.742Z,4.70
2018-12-10T09:00:29.918Z,4.80
2018-12-10T09:02:58.301Z,4.90
2018-12-10T09:05:27.077Z,4.90
2018-12-10T09:07:55.366Z,4.90
2018-12-10T09:10:23.693Z,4.90
2018-12-10T09:12:52.394Z,4.80
2018-12-10T09:15:20.776Z,4.90
2018-12-10T09:17:49.364Z,4.70
2018-12-10T09:20:17.647Z,4.70
2018-12-10T09:22:46.652Z,4.70
2018-12-10T09:25:14.945Z,4.70
2018-12-10T09:27:43.369Z,4.60
2018-12-10T09:30:13.961Z,4.70
2018-12-10T09:32:42.426Z,4.70
2018-12-10T09:35:11.526Z,4.60
2018-12-10T09:37:41.064Z,4.60
2018-12-10T09:40:10.628Z,4.70
2018-12-10T09:42:39.608Z,4.70
2018-12-10T09:45:08.845Z,4.70
2018-12-10T09:47:38.106Z,4.50
2018-12-10T09:50:07.086Z,4.40
2018-12-10T09:52:35.513Z,4.40
2018-12-10T09:55:03.993Z,4.70
2018-12-10T09:57:32.352Z,4.70
2018-12-10T10:00:01.159Z,4.70
2018-12-10T10:02:31.680Z,4.60
2018-12-10T10:04:59.936Z,4.60
2018-12-10T10:07:28.897Z,4.50
2018-12-10T10:09:57.205Z,4.60
2018-12-10T10:12:25.690Z,4.70
2018-12-10T10:14:54.073Z,4.70
2018-12-10T10:17:22.674Z,4.70
2018-12-10T10:19:50.917Z,4.50
2018-12-10T10:22:20.046Z,4.60
2018-12-10T10:24:48.371Z,4.80
2018-12-10T10:27:17.494Z,4.70
2018-12-10T10:29:45.765Z,4.70
2018-12-10T10:32:14.113Z,4.60
2018-12-10T10:34:42.503Z,4.60
2018-12-10T10:37:10.892Z,4.60
2018-12-10T10:39:39.202Z,4.60
2018-12-10T10:42:07.589Z,4.70
2018-12-10T10:44:35.850Z,4.70
2018-12-10T10:47:05.267Z,4.90
2018-12-10T10:49:33.688Z,4.90
2018-12-10T10:52:02.009Z,5.00
2018-12-10T10:54:30.551Z,5.00
2018-12-10T10:56:58.921Z,4.80
2018-12-10T10:59:27.293Z,5.00
2018-12-10T11:02:00.071Z,5.10
2018-12-10T11:04:37.433Z,5.20
2018-12-10T11:06:59.199Z,5.20
2018-12-10T11:09:27.529Z,5.20
2018-12-10T11:11:56.473Z,5.10
2018-12-10T11:14:25.694Z,5.20
2018-12-10T11:16:53.989Z,5.10
2018-12-10T11:19:22.249Z,5.00
2018-12-10T11:21:50.644Z,5.00
2018-12-10T11:24:19.613Z,5.00
2018-12-10T11:26:48.217Z,5.00
2018-12-10T11:29:16.516Z,4.90
2018-12-10T11:31:44.824Z,4.90
2018-12-10T11:34:13.207Z,4.90
2018-12-10T11:36:41.497Z,4.80
2018-12-10T11:39:09.945Z,4.90
2018-12-10T11:41:38.244Z,4.90
2018-12-10T11:44:06.892Z,4.80
2018-12-10T11:46:35.281Z,4.80
2018-12-10T11:49:03.677Z,4.60
2018-12-10T11:51:33.129Z,4.40
2018-12-10T11:54:01.413Z,4.40
2018-12-10T11:56:30.147Z,4.40
2018-12-10T11:58:58.507Z,4.40
2018-12-10T12:01:27.096Z,4.50
2018-12-10T12:03:55.469Z,4.60
2018-12-10T12:06:23.746Z,4.60
2018-12-10T12:08:52.096Z,4.60
2018-12-10T12:11:23.165Z,4.60
2018-12-10T12:13:52.355Z,4.50
2018-12-10T12:16:21.578Z,4.70
2018-12-10T12:18:53.230Z,4.70
2018-12-10T12:21:22.153Z,4.80
2018-12-10T12:23:55.906Z,4.70
2018-12-10T12:26:26.659Z,4.60
2018-12-10T12:28:56.088Z,4.70
2018-12-10T12:31:24.591Z,4.60
2018-12-10T12:33:53.279Z,4.60
2018-12-10T12:36:23.596Z,4.50
2018-12-10T12:38:52.808Z,4.50
2018-12-10T12:41:22.799Z,4.60
2018-12-10T12:43:53.306Z,4.60
2018-12-10T12:46:21.710Z,4.60
2018-12-10T12:48:50.957Z,4.60
2018-12-10T12:51:19.800Z,4.50
2018-12-10T12:53:48.214Z,4.60
2018-12-10T12:56:16.849Z,4.70
2018-12-10T12:58:45.296Z,4.80
2018-12-10T13:01:13.623Z,4.80
2018-12-10T13:03:42.277Z,4.80
2018-12-10T13:06:18.371Z,4.80
2018-12-10T13:08:46.954Z,5.00
2018-12-10T13:11:15.353Z,5.00
2018-12-10T13:13:43.712Z,5.00
2018-12-10T13:16:12.080Z,4.80
2018-12-10T13:18:42.364Z,4.70
2018-12-10T13:21:10.670Z,4.80
2018-12-10T13:23:39.117Z,4.90
2018-12-10T13:26:09.610Z,4.60
2018-12-10T13:28:37.904Z,4.60
2018-12-10T13:31:06.204Z,4.70
2018-12-10T13:33:34.519Z,4.70
2018-12-10T13:36:03.253Z,4.70
2018-12-10T13:38:36.724Z,4.70
2018-12-10T13:41:02.261Z,4.80
2018-12-10T13:43:30.688Z,4.70
2018-12-10T13:45:59.216Z,4.70
2018-12-10T13:48:27.605Z,4.60
2018-12-10T13:50:56.039Z,4.70
2018-12-10T13:53:24.385Z,4.70
2018-12-10T13:55:53.334Z,4.70
2018-12-10T13:58:21.649Z,4.60
2018-12-10T14:00:51.093Z,4.60
2018-12-10T14:03:20.639Z,4.70
2018-12-10T14:05:49.121Z,4.70
2018-12-10T14:08:17.622Z,4.80
2018-12-10T14:10:45.953Z,4.70
2018-12-10T14:13:15.840Z,4.70
2018-12-10T14:15:44.394Z,4.70
2018-12-10T14:18:12.740Z,4.60
2018-12-10T14:20:41.166Z,4.50
2018-12-10T14:23:10.218Z,4.40
2018-12-10T14:25:38.553Z,4.30
2018-12-10T14:28:07.023Z,4.50
2018-12-10T14:30:35.730Z,4.30
2018-12-10T14:33:04.427Z,4.30
2018-12-10T14:35:32.752Z,4.40
2018-12-10T14:38:01.217Z,4.40
2018-12-10T14:40:30.673Z,4.30
2018-12-10T14:42:59.158Z,4.20
2018-12-10T14:45:28.323Z,4.30
2018-12-10T14:47:57.796Z,4.20
2018-12-10T14:50:26.281Z,4.30
2018-12-10T14:52:54.963Z,4.30
2018-12-10T14:55:24.150Z,4.30
2018-12-10T14:57:53.066Z,4.40
2018-12-10T15:00:22.661Z,4.40
2018-12-10T15:02:54.746Z,4.20
2018-12-10T15:05:23.979Z,4.30
2018-12-10T15:07:52.629Z,4.20
2018-12-10T15:10:23.422Z,4.10
2018-12-10T15:12:52.363Z,4.10
2018-12-10T15:15:21.619Z,4.10
2018-12-10T15:17:50.088Z,4.10
2018-12-10T15:20:18.518Z,4.00
2018-12-10T15:22:47.040Z,4.00
2018-12-10T15:25:15.444Z,4.10
2018-12-10T15:27:47.005Z,4.30
2018-12-10T15:30:15.422Z,4.30
2018-12-10T15:32:44.906Z,4.30
2018-12-10T15:35:13.679Z,4.30
2018-12-10T15:37:42.151Z,4.30
2018-12-10T15:40:11.737Z,4.30
2018-12-10T15:42:40.197Z,4.40
2018-12-10T15:45:08.894Z,4.50
2018-12-10T15:47:37.237Z,4.50
2018-12-10T15:50:05.760Z,4.40
2018-12-10T15:52:34.104Z,4.30
2018-12-10T15:55:03.553Z,4.20
2018-12-10T15:57:32.083Z,4.30
2018-12-10T16:00:00.514Z,4.30
2018-12-10T16:02:29.089Z,4.20
2018-12-10T16:04:57.608Z,4.10
2018-12-10T16:07:27.573Z,4.10
2018-12-10T16:09:56.742Z,4.10
2018-12-10T16:12:25.172Z,4.10
2018-12-10T16:14:53.631Z,4.20
2018-12-10T16:17:22.251Z,4.20
2018-12-10T16:19:51.061Z,4.20
2018-12-10T16:22:19.587Z,4.00
2018-12-10T16:24:48.520Z,4.00
2018-12-10T16:27:17.264Z,3.90
2018-12-10T16:29:46.974Z,3.90
2018-12-10T16:32:17.674Z,3.90
2018-12-10T16:34:46.626Z,3.90
2018-12-10T16:37:15.084Z,4.00
2018-12-10T16:39:43.836Z,4.00
2018-12-10T16:42:12.700Z,4.00
2018-12-10T16:44:41.395Z,4.20
2018-12-10T16:47:10.946Z,4.10
2018-12-10T16:49:40.046Z,4.20
2018-12-10T16:52:09.402Z,4.20
2018-12-10T16:54:37.841Z,4.10
2018-12-10T16:57:07.492Z,4.20
2018-12-10T16:59:36.529Z,4.20
2018-12-10T17:02:08.851Z,4.00
2018-12-10T17:04:37.319Z,4.10
2018-12-10T17:07:05.874Z,4.10
2018-12-10T17:09:35.075Z,4.20
2018-12-10T17:12:04.237Z,4.20
2018-12-10T17:14:32.858Z,4.20
2018-12-10T17:17:01.461Z,4.20
2018-12-10T17:19:32.247Z,4.10
2018-12-10T17:22:00.758Z,4.10
2018-12-10T17:24:29.126Z,4.20
2018-12-10T17:26:57.964Z,4.10
2018-12-10T17:29:27.639Z,4.00
2018-12-10T17:31:56.121Z,4.00
2018-12-10T17:34:31.142Z,4.10
2018-12-10T17:36:59.631Z,4.20
2018-12-10T17:39:28.053Z,4.10
2018-12-10T17:41:57.048Z,4.10
2018-12-10T17:44:27.671Z,4.00
2018-12-10T17:46:56.122Z,4.00
2018-12-10T17:49:24.778Z,3.90
2018-12-10T17:51:53.213Z,3.90
2018-12-10T17:54:21.621Z,4.00
2018-12-10T17:56:50.656Z,3.90
2018-12-10T17:59:19.340Z,3.90
2018-12-10T18:01:48.230Z,3.90
2018-12-10T18:04:17.775Z,4.00
2018-12-10T18:06:46.549Z,4.00
2018-12-10T18:09:15.003Z,4.10
2018-12-10T18:11:43.602Z,4.10
2018-12-10T18:14:12.791Z,4.10
2018-12-10T18:16:41.227Z,4.10
2018-12-10T18:19:09.786Z,4.20
2018-12-10T18:21:39.007Z,4.10
2018-12-10T18:24:08.458Z,4.20
2018-12-10T18:26:40.591Z,4.10
2018-12-10T18:29:09.038Z,4.00
2018-12-10T18:31:38.561Z,4.00
2018-12-10T18:34:07.480Z,4.00
2018-12-10T18:36:36.198Z,4.00
2018-12-10T18:39:07.133Z,4.10
2018-12-10T18:41:35.526Z,4.10
2018-12-10T18:44:04.055Z,4.00
2018-12-10T18:46:33.017Z,4.00
2018-12-10T18:49:01.517Z,4.00
2018-12-10T18:51:29.925Z,4.00
2018-12-10T18:53:58.327Z,4.20
2018-12-10T18:56:26.799Z,4.10
2018-12-10T18:58:55.111Z,4.00
2018-12-10T19:01:23.443Z,4.00
2018-12-10T19:03:51.837Z,4.00
2018-12-10T19:06:20.256Z,4.10
2018-12-10T19:08:50.914Z,4.10
2018-12-10T19:11:19.422Z,3.90
2018-12-10T19:13:50.202Z,3.90
2018-12-10T19:16:18.284Z,3.90
2018-12-10T19:18:46.804Z,3.80
2018-12-10T19:21:15.246Z,3.90
2018-12-10T19:23:43.682Z,4.00
2018-12-10T19:26:12.106Z,4.10
2018-12-10T19:28:41.146Z,4.10
2018-12-10T19:31:09.637Z,3.90
2018-12-10T19:33:38.016Z,3.90
2018-12-10T19:36:06.424Z,3.90
2018-12-10T19:38:45.333Z,3.90
2018-12-10T19:41:13.875Z,4.00
2018-12-10T19:43:42.322Z,4.00
2018-12-10T19:46:14.322Z,3.90
2018-12-10T19:48:43.167Z,4.00
2018-12-10T19:51:11.579Z,3.90
2018-12-10T19:53:40.604Z,3.90
2018-12-10T19:56:09.706Z,3.90
2018-12-10T19:58:40.579Z,3.70
2018-12-10T20:01:09.610Z,3.80
2018-12-10T20:03:40.828Z,3.80
2018-12-10T20:06:18.599Z,3.80
2018-12-10T20:08:49.094Z,3.70
2018-12-10T20:11:20.715Z,3.60
2018-12-10T20:13:51.118Z,3.80
2018-12-10T20:16:20.826Z,3.80
2018-12-10T20:18:50.504Z,3.80
2018-12-10T20:21:18.912Z,3.70
2018-12-10T20:23:49.152Z,3.60
2018-12-10T20:26:18.184Z,3.50
2018-12-10T20:28:49.362Z,3.50
2018-12-10T20:31:17.897Z,3.50
2018-12-10T20:33:49.175Z,3.20
2018-12-10T20:36:19.910Z,3.10
2018-12-10T20:38:51.447Z,2.60
2018-12-10T20:41:20.402Z,2.30
2018-12-10T20:43:49.350Z,2.20
2018-12-10T20:46:18.232Z,2.30
2018-12-10T20:48:48.702Z,2.20
2018-12-10T20:51:18.767Z,2.40
2018-12-10T20:53:47.229Z,2.50
2018-12-10T20:56:16.649Z,2.30
2018-12-10T20:58:45.729Z,2.30
2018-12-10T21:01:16.217Z,2.20
2018-12-10T21:03:47.699Z,2.30
2018-12-10T21:06:21.929Z,2.30
2018-12-10T21:08:50.802Z,2.40
2018-12-10T21:11:20.441Z,2.30
2018-12-10T21:13:50.774Z,2.30
2018-12-10T21:16:20.935Z,2.10
2018-12-10T21:18:50.818Z,2.10
2018-12-10T21:21:21.559Z,2.00
2018-12-10T21:23:51.925Z,2.00
2018-12-10T21:26:20.298Z,2.10
2018-12-10T21:28:48.669Z,2.20
2018-12-10T21:31:17.872Z,2.10
2018-12-10T21:34:11.179Z,2.20
2018-12-10T21:36:39.777Z,2.10
2018-12-10T21:39:08.290Z,2.20
2018-12-10T21:41:37.259Z,2.30
2018-12-10T21:44:06.896Z,2.30
2018-12-10T21:46:35.261Z,2.30
2018-12-10T21:49:05.111Z,2.30
2018-12-10T21:51:34.520Z,2.40
2018-12-10T21:54:02.958Z,2.30
2018-12-10T21:56:32.483Z,2.20
2018-12-10T21:59:02.029Z,2.20
2018-12-10T22:01:30.453Z,2.30
2018-12-10T22:03:58.865Z,2.30
2018-12-10T22:06:28.102Z,2.40
2018-12-10T22:08:57.765Z,2.40
2018-12-10T22:11:26.146Z,2.30
2018-12-10T22:13:56.185Z,2.30
2018-12-10T22:16:28.673Z,2.20
2018-12-10T22:18:58.609Z,2.20
2018-12-10T22:21:27.189Z,2.30
2018-12-10T22:23:56.989Z,2.40
2018-12-10T22:26:26.123Z,2.50
2018-12-10T22:28:54.725Z,2.40
2018-12-10T22:31:24.076Z,2.60
2018-12-10T22:33:53.695Z,2.40
2018-12-10T22:36:22.530Z,2.20
2018-12-10T22:38:51.373Z,2.30
2018-12-10T22:41:20.477Z,2.20
2018-12-10T22:43:49.717Z,2.20
2018-12-10T22:46:18.219Z,2.30
2018-12-10T22:48:47.762Z,2.20
2018-12-10T22:51:17.794Z,2.20
2018-12-10T22:53:47.006Z,2.20
2018-12-10T22:56:15.606Z,2.20
2018-12-10T22:58:44.019Z,2.20
2018-12-10T23:01:13.391Z,2.30
2018-12-10T23:03:41.954Z,2.10
2018-12-10T23:06:10.320Z,2.10
2018-12-10T23:08:40.806Z,1.90
2018-12-10T23:11:09.501Z,2.00
2018-12-10T23:13:37.768Z,2.00
2018-12-10T23:16:07.696Z,1.90
2018-12-10T23:18:36.487Z,1.80
2018-12-10T23:21:05.222Z,1.90
2018-12-10T23:23:33.854Z,1.80
2018-12-10T23:26:02.195Z,1.80
2018-12-10T23:28:30.830Z,1.70
2018-12-10T23:31:02.459Z,1.80
2018-12-10T23:33:32.903Z,2.00
2018-12-10T23:36:01.263Z,2.10
2018-12-10T23:38:30.181Z,2.00
2018-12-10T23:40:59.058Z,2.00
2018-12-10T23:43:27.418Z,2.00
2018-12-10T23:45:55.886Z,2.00
2018-12-10T23:48:24.178Z,2.00
2018-12-10T23:50:58.916Z,2.00
2018-12-10T23:53:27.630Z,2.00
2018-12-10T23:55:56.017Z,2.20
2018-12-10T23:58:24.360Z,2.30
